createdAt,value
2018-09-13T00:01:56.293Z,100781.96
2018-09-13T00:04:24.081Z,100774.51
2018-09-13T00:06:52.167Z,100779.75
2018-09-13T00:09:19.996Z,100780.05
2018-09-13T00:11:47.860Z,100779.20
2018-09-13T00:14:15.679Z,100773.95
2018-09-13T00:16:43.443Z,100778.38
2018-09-13T00:19:11.263Z,100776.15
2018-09-13T00:21:39.064Z,100772.56
2018-09-13T00:24:06.858Z,100770.35
2018-09-13T00:26:34.684Z,100774.77
2018-09-13T00:29:02.526Z,100775.33
2018-09-13T00:31:30.312Z,100774.48
2018-09-13T00:33:58.142Z,100774.48
2018-09-13T00:36:25.960Z,100771.17
2018-09-13T00:38:53.756Z,100767.84
2018-09-13T00:41:21.571Z,100766.45
2018-09-13T00:43:49.430Z,100765.60
2018-09-13T00:46:17.258Z,100761.18
2018-09-13T00:48:45.091Z,100762.56
2018-09-13T00:51:12.991Z,100769.44
2018-09-13T00:53:40.781Z,100764.18
2018-09-13T00:56:08.603Z,100766.94
2018-09-13T00:58:36.485Z,100768.30
2018-09-13T01:01:04.272Z,100771.63
2018-09-13T01:03:32.156Z,100771.05
2018-09-13T01:05:59.952Z,100757.49
2018-09-13T01:08:27.744Z,100754.44
2018-09-13T01:10:55.578Z,100767.11
2018-09-13T01:13:23.435Z,100767.44
2018-09-13T01:15:51.446Z,100762.72
2018-09-13T01:18:19.272Z,100762.13
2018-09-13T01:20:47.114Z,100761.88
2018-09-13T01:23:14.924Z,100754.91
2018-09-13T01:25:42.746Z,100754.91
2018-09-13T01:28:10.584Z,100749.64
2018-09-13T01:30:38.432Z,100754.09
2018-09-13T01:33:06.316Z,100757.61
2018-09-13T01:35:34.096Z,100763.69
2018-09-13T01:38:01.932Z,100756.82
2018-09-13T01:40:29.779Z,100761.17
2018-09-13T01:42:57.584Z,100770.00
2018-09-13T01:45:25.431Z,100763.10
2018-09-13T01:47:53.275Z,100750.92
2018-09-13T01:50:21.096Z,100749.55
2018-09-13T01:52:48.935Z,100741.81
2018-09-13T01:55:16.803Z,100743.51
2018-09-13T01:57:44.687Z,100741.02
2018-09-13T02:00:12.509Z,100736.82
2018-09-13T02:02:40.308Z,100742.34
2018-09-13T02:05:08.170Z,100743.75
2018-09-13T02:07:36.000Z,100740.44
2018-09-13T02:10:03.983Z,100737.12
2018-09-13T02:12:31.837Z,100738.75
2018-09-13T02:14:59.667Z,100739.30
2018-09-13T02:17:27.528Z,100732.13
2018-09-13T02:19:55.316Z,100742.89
2018-09-13T02:22:23.133Z,100750.09
2018-09-13T02:24:50.992Z,100742.34
2018-09-13T02:27:18.819Z,100740.41
2018-09-13T02:29:46.620Z,100740.12
2018-09-13T02:32:18.245Z,100740.44
2018-09-13T02:34:46.156Z,100752.30
2018-09-13T02:37:13.948Z,100748.95
2018-09-13T02:39:41.797Z,100745.64
2018-09-13T02:42:09.677Z,100738.99
2018-09-13T02:44:37.485Z,100735.72
2018-09-13T02:47:05.304Z,100726.58
2018-09-13T02:49:33.142Z,100737.92
2018-09-13T02:52:00.974Z,100735.95
2018-09-13T02:54:28.900Z,100736.20
2018-09-13T02:56:56.707Z,100744.51
2018-09-13T02:59:24.580Z,100747.81
2018-09-13T03:01:52.512Z,100746.44
2018-09-13T03:04:20.272Z,100735.95
2018-09-13T03:06:48.152Z,100738.72
2018-09-13T03:09:15.947Z,100735.64
2018-09-13T03:11:44.031Z,100734.77
2018-09-13T03:14:14.154Z,100729.30
2018-09-13T03:16:41.970Z,100717.44
2018-09-13T03:19:09.924Z,100714.41
2018-09-13T03:21:37.732Z,100714.92
2018-09-13T03:24:05.546Z,100715.98
2018-09-13T03:26:33.545Z,100711.33
2018-09-13T03:29:01.481Z,100704.71
2018-09-13T03:31:29.531Z,100703.05
2018-09-13T03:33:57.359Z,100701.67
2018-09-13T03:36:25.111Z,100703.37
2018-09-13T03:38:52.983Z,100699.47
2018-09-13T03:41:20.827Z,100700.27
2018-09-13T03:43:48.729Z,100703.88
2018-09-13T03:46:16.513Z,100706.92
2018-09-13T03:48:44.319Z,100712.98
2018-09-13T03:51:12.106Z,100717.33
2018-09-13T03:53:39.950Z,100714.64
2018-09-13T03:56:07.883Z,100709.09
2018-09-13T03:58:35.743Z,100704.98
2018-09-13T04:01:03.637Z,100708.57
2018-09-13T04:03:31.591Z,100710.47
2018-09-13T04:05:59.434Z,100717.63
2018-09-13T04:08:27.806Z,100717.95
2018-09-13T04:10:55.581Z,100715.98
2018-09-13T04:13:23.510Z,100715.74
2018-09-13T04:15:51.276Z,100717.12
2018-09-13T04:18:22.403Z,100713.50
2018-09-13T04:20:50.344Z,100711.84
2018-09-13T04:23:18.187Z,100712.91
2018-09-13T04:25:46.060Z,100710.39
2018-09-13T04:28:13.923Z,100708.22
2018-09-13T04:30:41.727Z,100703.23
2018-09-13T04:33:09.551Z,100703.22
2018-09-13T04:35:37.460Z,100710.19
2018-09-13T04:38:05.524Z,100706.61
2018-09-13T04:40:33.351Z,100701.36
2018-09-13T04:43:01.250Z,100701.33
2018-09-13T04:45:29.127Z,100697.16
2018-09-13T04:47:57.023Z,100701.57
2018-09-13T04:50:24.900Z,100703.88
2018-09-13T04:52:54.187Z,100701.61
2018-09-13T04:55:21.931Z,100703.84
2018-09-13T04:57:49.970Z,100711.81
2018-09-13T05:00:26.918Z,100707.16
2018-09-13T05:02:55.414Z,100719.05
2018-09-13T05:05:23.581Z,100722.88
2018-09-13T05:07:57.094Z,100731.16
2018-09-13T05:10:24.992Z,100731.19
2018-09-13T05:12:56.045Z,100722.64
2018-09-13T05:15:28.548Z,100727.02
2018-09-13T05:17:58.402Z,100724.77
2018-09-13T05:20:26.224Z,100717.12
2018-09-13T05:22:54.208Z,100723.19
2018-09-13T05:25:22.355Z,100725.67
2018-09-13T05:27:50.265Z,100717.98
2018-09-13T05:30:18.266Z,100718.81
2018-09-13T05:32:48.483Z,100721.02
2018-09-13T05:35:16.332Z,100716.05
2018-09-13T05:37:44.400Z,100717.47
2018-09-13T05:40:13.551Z,100721.33
2018-09-13T05:42:46.557Z,100721.37
2018-09-13T05:45:14.467Z,100726.89
2018-09-13T05:47:42.291Z,100727.71
2018-09-13T05:50:10.145Z,100718.33
2018-09-13T05:52:38.084Z,100717.78
2018-09-13T05:55:06.039Z,100714.50
2018-09-13T05:57:33.948Z,100715.63
2018-09-13T06:00:01.756Z,100723.36
2018-09-13T06:02:29.510Z,100728.05
2018-09-13T06:04:57.268Z,100725.05
2018-09-13T06:07:25.163Z,100717.08
2018-09-13T06:09:52.968Z,100716.80
2018-09-13T06:12:20.756Z,100717.34
2018-09-13T06:14:48.529Z,100728.14
2018-09-13T06:17:16.336Z,100727.61
2018-09-13T06:19:44.198Z,100725.41
2018-09-13T06:22:12.084Z,100723.21
2018-09-13T06:24:40.030Z,100732.34
2018-09-13T06:27:07.803Z,100722.67
2018-09-13T06:29:35.929Z,100728.49
2018-09-13T06:32:03.810Z,100733.22
2018-09-13T06:34:31.632Z,100730.17
2018-09-13T06:36:59.479Z,100731.30
2018-09-13T06:39:27.270Z,100733.50
2018-09-13T06:41:55.091Z,100733.53
2018-09-13T06:44:22.864Z,100741.30
2018-09-13T06:46:50.631Z,100742.13
2018-09-13T06:49:18.518Z,100748.50
2018-09-13T06:51:46.381Z,100754.59
2018-09-13T06:54:14.189Z,100757.38
2018-09-13T06:56:42.123Z,100762.07
2018-09-13T06:59:09.989Z,100768.16
2018-09-13T07:01:37.868Z,100760.13
2018-09-13T07:04:05.708Z,100741.85
2018-09-13T07:06:33.522Z,100741.27
2018-09-13T07:09:05.232Z,100746.55
2018-09-13T07:11:33.264Z,100757.84
2018-09-13T07:14:01.114Z,100760.85
2018-09-13T07:16:28.887Z,100764.17
2018-09-13T07:18:56.675Z,100755.87
2018-09-13T07:21:24.504Z,100761.64
2018-09-13T07:23:52.421Z,100759.64
2018-09-13T07:26:20.204Z,100762.94
2018-09-13T07:28:48.025Z,100758.45
2018-09-13T07:31:15.880Z,100760.38
2018-09-13T07:33:43.755Z,100751.17
2018-09-13T07:36:11.575Z,100748.06
2018-09-13T07:38:39.427Z,100751.87
2018-09-13T07:41:07.252Z,100760.46
2018-09-13T07:43:35.059Z,100757.39
2018-09-13T07:46:02.848Z,100760.73
2018-09-13T07:48:30.955Z,100764.86
2018-09-13T07:50:58.764Z,100761.20
2018-09-13T07:53:26.608Z,100758.09
2018-09-13T07:55:54.399Z,100762.75
2018-09-13T07:58:22.208Z,100764.50
2018-09-13T08:00:50.228Z,100767.70
2018-09-13T08:03:18.096Z,100765.92
2018-09-13T08:05:45.923Z,100777.21
2018-09-13T08:08:13.756Z,100769.06
2018-09-13T08:10:41.627Z,100766.66
2018-09-13T08:13:09.388Z,100774.59
2018-09-13T08:15:37.260Z,100775.23
2018-09-13T08:18:05.100Z,100772.42
2018-09-13T08:20:32.984Z,100773.59
2018-09-13T08:23:00.812Z,100767.29
2018-09-13T08:25:28.676Z,100775.70
2018-09-13T08:27:56.435Z,100771.66
2018-09-13T08:30:24.571Z,100783.12
2018-09-13T08:32:52.391Z,100784.37
2018-09-13T08:35:20.199Z,100781.67
2018-09-13T08:37:47.992Z,100776.89
2018-09-13T08:40:15.894Z,100778.91
2018-09-13T08:42:43.648Z,100780.42
2018-09-13T08:45:11.531Z,100777.72
2018-09-13T08:47:39.411Z,100785.55
2018-09-13T08:50:07.215Z,100789.56
2018-09-13T08:52:35.007Z,100788.08
2018-09-13T08:55:02.886Z,100787.77
2018-09-13T08:57:30.671Z,100792.61
2018-09-13T08:59:58.491Z,100799.64
2018-09-13T09:02:26.292Z,100802.02
2018-09-13T09:04:54.072Z,100804.08
2018-09-13T09:07:21.907Z,100802.92
2018-09-13T09:09:49.736Z,100808.62
2018-09-13T09:12:17.599Z,100816.06
2018-09-13T09:14:45.443Z,100814.59
2018-09-13T09:17:13.247Z,100809.19
2018-09-13T09:19:41.112Z,100806.09
2018-09-13T09:22:08.918Z,100810.23
2018-09-13T09:24:36.705Z,100805.66
2018-09-13T09:27:04.588Z,100807.05
2018-09-13T09:29:32.391Z,100798.66
2018-09-13T09:32:00.263Z,100789.09
2018-09-13T09:34:28.115Z,100788.16
2018-09-13T09:36:55.923Z,100783.44
2018-09-13T09:39:23.731Z,100782.09
2018-09-13T09:41:51.544Z,100780.80
2018-09-13T09:44:19.410Z,100781.66
2018-09-13T09:46:47.205Z,100795.33
2018-09-13T09:49:15.017Z,100803.29
2018-09-13T09:51:42.890Z,100822.08
2018-09-13T09:54:10.679Z,100811.43
2018-09-13T09:56:38.596Z,100806.63
2018-09-13T09:59:06.447Z,100802.81
2018-09-13T10:01:37.556Z,100805.34
2018-09-13T10:04:08.988Z,100797.19
2018-09-13T10:06:36.909Z,100794.74
2018-09-13T10:09:06.993Z,100789.41
2018-09-13T10:11:35.197Z,100780.84
2018-09-13T10:14:03.108Z,100785.11
2018-09-13T10:16:36.835Z,100775.39
2018-09-13T10:19:10.459Z,100758.12
2018-09-13T10:21:43.947Z,100759.42
2018-09-13T10:24:17.432Z,100753.62
2018-09-13T10:26:53.679Z,100752.13
2018-09-13T10:29:27.394Z,100757.58
2018-09-13T10:32:01.060Z,100755.02
2018-09-13T10:34:34.712Z,100767.75
2018-09-13T10:37:08.289Z,100784.74
2018-09-13T10:39:41.796Z,100784.41
2018-09-13T10:42:15.293Z,100794.86
2018-09-13T10:44:48.857Z,100793.13
2018-09-13T10:47:22.335Z,100802.58
2018-09-13T10:50:04.604Z,100796.53
2018-09-13T10:52:35.100Z,100796.98
2018-09-13T10:55:02.948Z,100792.92
2018-09-13T10:57:36.511Z,100780.79
2018-09-13T11:00:04.438Z,100776.17
2018-09-13T11:02:32.273Z,100784.06
2018-09-13T11:05:00.112Z,100792.91
2018-09-13T11:07:27.921Z,100788.05
2018-09-13T11:09:55.832Z,100791.61
2018-09-13T11:12:28.408Z,100785.55
2018-09-13T11:15:02.924Z,100782.08
2018-09-13T11:17:31.032Z,100776.89
2018-09-13T11:19:58.840Z,100779.83
2018-09-13T11:22:26.655Z,100762.64
2018-09-13T11:24:54.514Z,100759.03
2018-09-13T11:27:22.347Z,100754.33
2018-09-13T11:29:50.158Z,100760.87
2018-09-13T11:32:18.043Z,100758.54
2018-09-13T11:34:45.849Z,100757.70
2018-09-13T11:37:13.828Z,100749.79
2018-09-13T11:39:41.658Z,100757.14
2018-09-13T11:42:09.603Z,100768.13
2018-09-13T11:44:37.461Z,100773.25
2018-09-13T11:47:05.907Z,100781.14
2018-09-13T11:49:33.723Z,100778.83
2018-09-13T11:52:01.615Z,100768.98
2018-09-13T11:54:29.418Z,100764.88
2018-09-13T11:56:57.227Z,100768.40
2018-09-13T11:59:25.072Z,100756.63
2018-09-13T12:01:52.856Z,100752.11
2018-09-13T12:04:20.644Z,100740.19
2018-09-13T12:06:48.515Z,100731.41
2018-09-13T12:09:16.331Z,100715.22
2018-09-13T12:11:44.200Z,100722.05
2018-09-13T12:14:12.172Z,100730.06
2018-09-13T12:16:39.950Z,100733.48
2018-09-13T12:19:07.833Z,100729.30
2018-09-13T12:21:35.679Z,100730.91
2018-09-13T12:24:03.779Z,100748.47
2018-09-13T12:26:31.848Z,100754.87
2018-09-13T12:28:59.732Z,100753.59
2018-09-13T12:31:27.599Z,100759.75
2018-09-13T12:33:55.383Z,100765.18
2018-09-13T12:36:23.223Z,100764.72
2018-09-13T12:38:51.024Z,100766.28
2018-09-13T12:41:18.904Z,100767.28
2018-09-13T12:43:46.723Z,100774.53
2018-09-13T12:46:14.545Z,100770.95
2018-09-13T12:48:42.404Z,100768.84
2018-09-13T12:51:10.253Z,100765.52
2018-09-13T12:53:38.105Z,100754.14
2018-09-13T12:56:05.983Z,100748.80
2018-09-13T12:58:33.801Z,100748.32
2018-09-13T13:01:01.600Z,100737.77
2018-09-13T13:03:29.647Z,100731.34
2018-09-13T13:05:57.497Z,100736.52
2018-09-13T13:08:25.500Z,100734.05
2018-09-13T13:10:53.328Z,100739.63
2018-09-13T13:13:21.119Z,100746.94
2018-09-13T13:15:48.882Z,100749.77
2018-09-13T13:18:16.716Z,100743.32
2018-09-13T13:20:44.548Z,100743.87
2018-09-13T13:23:12.343Z,100741.95
2018-09-13T13:25:40.139Z,100731.70
2018-09-13T13:28:08.003Z,100726.83
2018-09-13T13:30:35.841Z,100729.22
2018-09-13T13:33:03.667Z,100734.41
2018-09-13T13:35:31.527Z,100728.08
2018-09-13T13:37:59.380Z,100725.68
2018-09-13T13:40:27.159Z,100724.42
2018-09-13T13:42:54.980Z,100719.01
2018-09-13T13:45:22.794Z,100718.16
2018-09-13T13:47:50.667Z,100717.23
2018-09-13T13:50:18.472Z,100710.93
2018-09-13T13:52:46.264Z,100714.02
2018-09-13T13:55:14.040Z,100708.31
2018-09-13T13:57:41.903Z,100703.38
2018-09-13T14:00:10.627Z,100703.41
2018-09-13T14:02:38.617Z,100707.23
2018-09-13T14:05:06.581Z,100704.69
2018-09-13T14:07:36.196Z,100695.14
2018-09-13T14:10:04.113Z,100691.78
2018-09-13T14:12:31.927Z,100693.83
2018-09-13T14:14:59.713Z,100694.16
2018-09-13T14:17:27.497Z,100695.23
2018-09-13T14:19:55.411Z,100696.23
2018-09-13T14:22:23.273Z,100696.28
2018-09-13T14:24:51.023Z,100698.23
2018-09-13T14:27:18.905Z,100697.08
2018-09-13T14:29:46.800Z,100694.86
2018-09-13T14:32:14.587Z,100689.19
2018-09-13T14:34:42.456Z,100681.00
2018-09-13T14:37:10.295Z,100680.61
2018-09-13T14:39:38.410Z,100677.33
2018-09-13T14:42:06.368Z,100678.37
2018-09-13T14:44:34.163Z,100676.89
2018-09-13T14:47:02.015Z,100682.30
2018-09-13T14:49:29.753Z,100676.09
2018-09-13T14:51:58.925Z,100677.27
2018-09-13T14:54:26.660Z,100675.34
2018-09-13T14:56:55.467Z,100674.81
2018-09-13T14:59:23.317Z,100674.15
2018-09-13T15:01:51.119Z,100671.16
2018-09-13T15:04:18.913Z,100667.97
2018-09-13T15:06:47.772Z,100663.96
2018-09-13T15:09:15.504Z,100655.88
2018-09-13T15:11:43.343Z,100664.69
2018-09-13T15:14:11.139Z,100658.46
2018-09-13T15:16:38.955Z,100659.18
2018-09-13T15:19:06.780Z,100662.02
2018-09-13T15:21:34.593Z,100661.25
2018-09-13T15:24:02.409Z,100659.12
2018-09-13T15:26:30.304Z,100661.38
2018-09-13T15:28:58.067Z,100662.98
2018-09-13T15:31:25.965Z,100667.33
2018-09-13T15:33:53.810Z,100661.24
2018-09-13T15:36:21.634Z,100665.00
2018-09-13T15:38:49.484Z,100662.94
2018-09-13T15:41:17.272Z,100661.98
2018-09-13T15:43:45.300Z,100662.00
2018-09-13T15:46:13.161Z,100661.92
2018-09-13T15:48:40.923Z,100663.56
2018-09-13T15:51:08.758Z,100671.05
2018-09-13T15:53:36.687Z,100669.77
2018-09-13T15:56:04.535Z,100668.83
2018-09-13T15:58:32.396Z,100667.80
2018-09-13T16:01:00.417Z,100669.67
2018-09-13T16:03:28.191Z,100667.82
2018-09-13T16:05:55.977Z,100676.23
2018-09-13T16:08:23.787Z,100671.78
2018-09-13T16:10:51.597Z,100680.34
2018-09-13T16:13:19.387Z,100680.63
2018-09-13T16:15:47.242Z,100679.38
2018-09-13T16:18:15.018Z,100682.92
2018-09-13T16:20:43.295Z,100682.88
2018-09-13T16:23:11.288Z,100686.53
2018-09-13T16:25:39.159Z,100684.36
2018-09-13T16:28:07.038Z,100680.74
2018-09-13T16:30:34.921Z,100676.42
2018-09-13T16:33:02.835Z,100674.59
2018-09-13T16:35:30.705Z,100671.30
2018-09-13T16:38:05.619Z,100672.13
2018-09-13T16:40:39.218Z,100671.95
2018-09-13T16:43:13.108Z,100671.45
2018-09-13T16:45:40.944Z,100670.86
2018-09-13T16:48:08.775Z,100670.89
2018-09-13T16:50:36.624Z,100676.20
2018-09-13T16:53:04.746Z,100672.66
2018-09-13T16:55:32.571Z,100678.49
2018-09-13T16:58:00.583Z,100683.94
2018-09-13T17:00:28.408Z,100681.03
2018-09-13T17:02:56.228Z,100675.80
2018-09-13T17:05:24.152Z,100677.95
2018-09-13T17:07:51.943Z,100683.11
2018-09-13T17:10:19.717Z,100689.38
2018-09-13T17:12:47.627Z,100685.04
2018-09-13T17:15:15.464Z,100681.45
2018-09-13T17:17:43.271Z,100687.09
2018-09-13T17:20:11.245Z,100683.52
2018-09-13T17:22:39.059Z,100682.67
2018-09-13T17:25:06.936Z,100683.21
2018-09-13T17:27:34.779Z,100679.44
2018-09-13T17:30:02.847Z,100683.12
2018-09-13T17:32:30.644Z,100682.73
2018-09-13T17:34:58.403Z,100685.64
2018-09-13T17:37:26.200Z,100692.17
2018-09-13T17:39:54.048Z,100692.89
2018-09-13T17:42:21.816Z,100690.33
2018-09-13T17:44:49.665Z,100687.14
2018-09-13T17:47:17.517Z,100690.66
2018-09-13T17:49:45.459Z,100695.73
2018-09-13T17:52:13.212Z,100699.22
2018-09-13T17:54:40.995Z,100692.06
2018-09-13T17:57:08.864Z,100687.14
2018-09-13T17:59:36.656Z,100688.09
2018-09-13T18:02:04.484Z,100688.02
2018-09-13T18:04:32.376Z,100692.95
2018-09-13T18:07:00.196Z,100695.23
2018-09-13T18:09:28.005Z,100699.80
2018-09-13T18:11:55.932Z,100697.66
2018-09-13T18:14:23.724Z,100701.67
2018-09-13T18:16:51.569Z,100703.44
2018-09-13T18:19:19.388Z,100705.34
2018-09-13T18:21:47.235Z,100702.12
2018-09-13T18:24:15.130Z,100711.13
2018-09-13T18:26:43.019Z,100712.86
2018-09-13T18:29:10.781Z,100722.85
2018-09-13T18:31:38.604Z,100723.22
2018-09-13T18:34:06.854Z,100724.56
2018-09-13T18:36:34.757Z,100726.52
2018-09-13T18:39:03.374Z,100727.91
2018-09-13T18:41:32.002Z,100735.47
2018-09-13T18:43:59.782Z,100728.07
2018-09-13T18:46:27.588Z,100733.41
2018-09-13T18:48:55.555Z,100735.58
2018-09-13T18:51:23.397Z,100730.95
2018-09-13T18:54:01.191Z,100734.34
2018-09-13T18:56:33.526Z,100735.37
2018-09-13T18:59:05.927Z,100735.12
2018-09-13T19:01:33.775Z,100734.39
2018-09-13T19:04:01.837Z,100739.33
2018-09-13T19:06:37.710Z,100738.77
2018-09-13T19:09:08.139Z,100745.24
2018-09-13T19:11:36.056Z,100752.80
2018-09-13T19:14:04.140Z,100753.31
2018-09-13T19:16:31.908Z,100752.94
2018-09-13T19:18:59.739Z,100755.98
2018-09-13T19:21:27.563Z,100755.84
2018-09-13T19:23:55.395Z,100763.09
2018-09-13T19:26:23.399Z,100760.91
2018-09-13T19:28:51.287Z,100764.17
2018-09-13T19:31:19.085Z,100772.89
2018-09-13T19:33:46.915Z,100771.24
2018-09-13T19:36:14.991Z,100771.06
2018-09-13T19:38:42.876Z,100782.42
2018-09-13T19:41:11.143Z,100783.81
2018-09-13T19:43:39.272Z,100785.57
2018-09-13T19:46:07.347Z,100780.88
2018-09-13T19:48:35.878Z,100779.53
2018-09-13T19:51:03.929Z,100784.58
2018-09-13T19:53:31.555Z,100784.32
2018-09-13T19:56:00.422Z,100786.63
2018-09-13T19:58:28.702Z,100785.51
2018-09-13T20:00:56.643Z,100786.66
2018-09-13T20:03:24.453Z,100793.86
2018-09-13T20:05:52.525Z,100793.44
2018-09-13T20:08:20.296Z,100799.43
2018-09-13T20:10:48.064Z,100802.87
2018-09-13T20:13:15.924Z,100803.45
2018-09-13T20:15:43.927Z,100802.09
2018-09-13T20:18:14.625Z,100801.30
2018-09-13T20:20:50.179Z,100801.31
2018-09-13T20:23:23.183Z,100796.57
2018-09-13T20:25:56.452Z,100801.34
2018-09-13T20:28:27.588Z,100799.96
2018-09-13T20:31:02.594Z,100805.75
2018-09-13T20:33:35.320Z,100799.16
2018-09-13T20:36:06.632Z,100804.14
2018-09-13T20:38:44.510Z,100803.88
2018-09-13T20:41:21.413Z,100802.23
2018-09-13T20:43:49.243Z,100801.67
2018-09-13T20:46:17.052Z,100800.86
2018-09-13T20:48:49.033Z,100805.33
2018-09-13T20:51:18.581Z,100805.31
2018-09-13T20:53:46.412Z,100812.00
2018-09-13T20:56:14.367Z,100806.22
2018-09-13T20:58:42.164Z,100810.92
2018-09-13T21:01:19.047Z,100811.50
2018-09-13T21:03:47.259Z,100808.78
2018-09-13T21:06:15.099Z,100813.22
2018-09-13T21:08:42.985Z,100817.08
2018-09-13T21:11:10.678Z,100816.80
2018-09-13T21:13:38.459Z,100813.51
2018-09-13T21:16:06.738Z,100819.03
2018-09-13T21:18:34.592Z,100822.91
2018-09-13T21:21:02.365Z,100819.59
2018-09-13T21:23:30.183Z,100825.42
2018-09-13T21:25:58.004Z,100825.11
2018-09-13T21:28:25.889Z,100831.77
2018-09-13T21:30:53.759Z,100828.70
2018-09-13T21:33:21.614Z,100831.76
2018-09-13T21:35:49.407Z,100831.47
2018-09-13T21:38:17.211Z,100837.01
2018-09-13T21:40:45.062Z,100839.22
2018-09-13T21:43:12.904Z,100836.46
2018-09-13T21:45:40.724Z,100836.98
2018-09-13T21:48:08.426Z,100832.02
2018-09-13T21:50:36.355Z,100834.22
2018-09-13T21:53:04.155Z,100838.38
2018-09-13T21:55:32.019Z,100835.59
2018-09-13T21:57:59.839Z,100833.36
2018-09-13T22:00:27.677Z,100831.97
2018-09-13T22:02:55.508Z,100829.77
2018-09-13T22:05:23.322Z,100836.32
2018-09-13T22:07:51.159Z,100839.86
2018-09-13T22:10:18.975Z,100837.34
2018-09-13T22:12:46.747Z,100848.14
2018-09-13T22:15:14.540Z,100841.42
2018-09-13T22:17:42.368Z,100846.73
2018-09-13T22:20:10.208Z,100844.50
2018-09-13T22:22:38.051Z,100850.81
2018-09-13T22:25:06.345Z,100855.78
2018-09-13T22:27:34.317Z,100859.03
2018-09-13T22:30:02.725Z,100855.98
2018-09-13T22:32:30.639Z,100850.98
2018-09-13T22:34:58.590Z,100847.40
2018-09-13T22:37:26.471Z,100848.14
2018-09-13T22:39:54.348Z,100843.14
2018-09-13T22:42:22.204Z,100847.59
2018-09-13T22:44:50.109Z,100848.89
2018-09-13T22:47:18.049Z,100853.30
2018-09-13T22:49:45.808Z,100859.14
2018-09-13T22:52:13.588Z,100853.02
2018-09-13T22:54:41.432Z,100853.53
2018-09-13T22:57:09.315Z,100851.50
2018-09-13T22:59:37.188Z,100851.50
2018-09-13T23:02:05.064Z,100848.70
2018-09-13T23:04:35.514Z,100855.27
2018-09-13T23:07:03.488Z,100851.73
2018-09-13T23:09:31.343Z,100846.81
2018-09-13T23:11:59.180Z,100851.72
2018-09-13T23:14:26.960Z,100855.59
2018-09-13T23:16:54.726Z,100849.11
2018-09-13T23:19:22.561Z,100852.77
2018-09-13T23:21:50.355Z,100853.52
2018-09-13T23:24:18.234Z,100846.28
2018-09-13T23:26:46.045Z,100848.16
2018-09-13T23:29:13.903Z,100848.98
2018-09-13T23:31:41.737Z,100844.84
2018-09-13T23:34:09.551Z,100844.34
2018-09-13T23:36:37.340Z,100849.30
2018-09-13T23:39:08.449Z,100853.19
2018-09-13T23:41:36.830Z,100847.12
2018-09-13T23:44:04.631Z,100844.08
2018-09-13T23:46:35.309Z,100847.54
2018-09-13T23:49:03.394Z,100843.56
2018-09-13T23:51:31.279Z,100845.50
2018-09-13T23:53:59.035Z,100851.83
2018-09-13T23:56:26.891Z,100847.98
2018-09-13T23:58:54.681Z,100850.72
